EYKA/KUN METAR and TAF weather

Enter ICAO airport designator
Station Type Date Time Source
EYKA METAR 2019/06/18 12:50 UTC NOAA

EYKA 181250Z 01004KT 280V080 CAVOK 25/12 Q1020


Station Type Date Time Source
EYKA Decoded METAR 2019/06/18 12:50 UTC NOAA

Kaunas, Lithuania (EYKA) 54-54N 023-55-12E
Jun 18, 2019 - 08:50 AM EDT / 2019.06.18 1250 UTC
Wind: from the N (010 degrees) at 5 MPH (4 KT) (direction variable):0
Visibility: greater than 7 mile(s):0
Temperature: 77 F (25 C)
Dew Point: 53 F (12 C)
Relative Humidity: 44%
Pressure (altimeter): 30.12 in. Hg (1020 hPa)
ob: EYKA 181250Z 01004KT 280V080 CAVOK 25/12 Q1020
cycle: 13

Station Type Date Time Source
EYKA TAF 2019/06/18 12:06 UTC NOAA

TAF TAF EYKA 181100Z 1812/1912 VRB05KT 9000 SCT040
BECMG 1822/1824 NSC
TEMPO 1900/1904 5000 BR
BECMG 1909/1910 SCT035

Example: see airport list